Warning: Javascript must be enabled to use all the features on this page!


Page Loading - Please Wait...

Click to hideNews Bulletins

Peak Streamflow for Texas

Click to hide state-specific text

Explore Real-time Water Data Using New Products from USGS TXWSC

View over 750 USGS real-time stream, lake, reservoir, precipitation, and groundwater stations in context with current weather and hazard conditions on both desktop and mobile devices.

Click to go to the Texas Water Dashboard Click to go to the WATER On-the-go app

Follow @USGS_TexasFlood and @USGS_TexasRain on Twitter to get current water level and precipitation data during flooding or severe rainfall events.


USGS 08095300 Middle Bosque Rv nr McGregor, TX

Mclennan County, Texas
Hydrologic Unit Code 12060203
Latitude  31°30'33", Longitude  97°21'56" NAD27
Drainage area 182  square miles
Contributing drainage area 182  square miles
Gage datum 530.51 feet above NGVD29
Output formats
Table
Graph
Tab-separated file
peakfq (watstore) format
Reselect output format
Water
Year
Date Gage
Height
(feet)
Stream-
flow
(cfs)
1889 1889 28.505,Bm  
1913 1913 28.005,Bm  
1942 1942 28.005,Bm  
1957 1957 28.205,Bm  
1960 1959-10-04 17.30 20,300
1961 1961-02-16 17.45 20,500
1962 1962-06-28 13.96 13,500
1963 1963-05-06 4.75 1,030
1964 1964-06-16 24.30 32,600
1965 1965-05-14 20.75 25,600
1966 1965-11-08 15.20 15,200
1967 1967-06-12 9.62 6,530
1968 1968-05-10 23.02 30,000
1969 1969-05-07 11.95 10,000
1970 1970-03-07 10.85 8,400
1971 1971-07-25 10.31 7,500
1972 1971-10-19 12.15 10,400
1973 1973-05-25 11.63 9,450
1974 1974-09-17 12.58 10,900
1975 1974-10-31 24.62 33,300
1976 1976-07-04 19.95 23,800
1977 1977-06-13 13.55 12,500
1978 1978-03-07 3.12 1,150
1979 1979-06-01 13.27 12,100
1980 1980-05-15 11.66 9,620
1981 1981-06-16 22.02 28,000
1982 1982-03-21 7.85 4,500
1983 1983-02-20 12.17 10,400
1984 1984-03-12 4.36 909
1985 1984-10-24 10.50 7,930
1986 1985-12-10 11.82 10,000
1987 1986-12-23 6.08 2,530
1988 1988-09-29 4.51 1,030
1989 1989-05-17 21.92 27,800
1990 1990-05-03 15.95 16,500
1991 1991-05-14 10.98 8,620
1992 1991-12-20 22.58 29,100
1993 1992-11-19 9.52 6,590
1994 1994-05-10 12.88 11,500
1995 1995-04-05 13.07 11,800
1996 1996-08-05 10.63 8,780
1997 1997-02-12 17.41 17,700
1998 1997-12-20 19.53 21,600
1999 1998-10-17 11.63 9,570
2000 2000-06-18 6.29 2,750
2001 2001-03-08 9.18 4,860
2002 2001-11-15 14.07 11,100
2003 2002-12-09 8.28 4,070
2004 2003-10-09 19.65 16,600
2005 2004-11-17 20.30 17,400
2006 2006-05-06 4.67 1,180
2007 2007-03-29 26.80 47,400
2008 2008-05-14   5,3108
2009 2008-10-15 13.09 8,960
2010 2010-09-08 20.53 18,600
2011 2011-01-16 3.35 161
2012 2012-03-20 17.27 13,800
2013 2013-09-29 3.45 206
2014 2013-10-27 13.90 9,880
2015 2015-05-25 17.32 13,900
2016 2016-04-18 16.21 12,600
2017 2016-11-05 13.28 9,170
2018 2018-05-04 4.18 815
2019 2018-10-19 15.59 12,800
2020 2020-04-12 17.03 13,600
2021 2021-06-01 9.25 4,920
?
  Peak Gage-Height Qualification Codes.
?
  Peak Streamflow Qualification Codes.